Time;durP1;ratioP1;P1;durP2;ratioP2;P2;SDS_P1;SDS_P2;PMS_P1;PMS_P2;Temp;Humidity;BMP_temperature;BMP_pressure;BME280_temperature;BME280_humidity;BME280_pressure;Samples;Min_cycle;Max_cycle;Signal;HPM_P1;HPM_P2
2021/05/07 00:01:55;;;;;;;1.60;1.50;;;18.20;55.10;;;;;;6221897;23;20161;-80
2021/05/07 00:04:22;;;;;;;2.65;1.83;;;18.10;55.00;;;;;;6221804;23;20137;-80
2021/05/07 00:06:52;;;;;;;3.13;1.48;;;18.10;55.10;;;;;;6221343;23;20135;-80
2021/05/07 00:09:17;;;;;;;2.50;1.65;;;18.10;55.20;;;;;;6170128;23;20213;-82
2021/05/07 00:11:50;;;;;;;2.13;1.65;;;18.10;55.10;;;;;;6195084;23;20570;-80
2021/05/07 00:14:17;;;;;;;2.58;1.55;;;18.10;55.10;;;;;;6221550;23;20138;-79
2021/05/07 00:16:42;;;;;;;3.33;1.70;;;18.10;54.90;;;;;;6169825;23;20543;-81
2021/05/07 00:19:08;;;;;;;4.15;1.80;;;18.10;55.00;;;;;;6194855;23;20169;-81
2021/05/07 00:21:34;;;;;;;1.98;1.60;;;18.10;55.10;;;;;;6221154;23;20195;-80
2021/05/07 00:24:00;;;;;;;2.25;2.00;;;18.10;54.90;;;;;;6194128;23;20194;-79
2021/05/07 00:26:26;;;;;;;1.80;1.50;;;18.10;55.10;;;;;;6221685;23;20537;-81
2021/05/07 00:28:51;;;;;;;2.33;1.88;;;18.10;55.10;;;;;;6144698;23;20582;-81
2021/05/07 00:31:18;;;;;;;1.40;1.30;;;18.10;55.10;;;;;;6194090;23;20574;-81
2021/05/07 00:33:45;;;;;;;2.30;2.00;;;18.10;55.10;;;;;;6220386;23;20137;-82
2021/05/07 00:36:11;;;;;;;2.33;1.73;;;18.10;55.00;;;;;;6168317;23;20135;-80
2021/05/07 00:38:38;;;;;;;3.53;1.80;;;18.10;55.10;;;;;;6220573;23;20165;-80
2021/05/07 00:41:04;;;;;;;2.17;1.70;;;18.10;55.10;;;;;;6220552;23;20158;-82
2021/05/07 00:43:31;;;;;;;2.38;1.75;;;18.10;55.10;;;;;;6193689;23;20146;-81
2021/05/07 00:45:56;;;;;;;2.08;1.40;;;18.10;55.10;;;;;;6194238;23;20134;-80
2021/05/07 00:48:22;;;;;;;1.30;1.20;;;18.10;55.00;;;;;;6193853;23;20581;-81
2021/05/07 00:50:48;;;;;;;1.60;1.50;;;18.10;55.10;;;;;;6194348;23;20226;-80
2021/05/07 00:53:16;;;;;;;2.13;1.80;;;18.10;55.20;;;;;;6170048;23;20134;-80
2021/05/07 00:55:42;;;;;;;5.05;2.08;;;18.10;55.00;;;;;;6220715;23;20147;-82
2021/05/07 00:58:09;;;;;;;3.80;1.77;;;18.00;55.00;;;;;;6193797;23;20671;-81
2021/05/07 01:00:36;;;;;;;1.73;1.60;;;18.10;54.90;;;;;;6220318;23;20593;-80
2021/05/07 01:03:04;;;;;;;3.30;1.77;;;18.10;55.20;;;;;;6192989;23;20162;-81
2021/05/07 01:05:30;;;;;;;3.05;1.38;;;18.10;55.00;;;;;;6220610;23;20443;-81
2021/05/07 01:07:57;;;;;;;1.85;1.55;;;18.00;55.00;;;;;;6168999;23;20200;-79
2021/05/07 01:10:25;;;;;;;2.83;1.80;;;18.10;55.00;;;;;;6169055;23;20153;-79
2021/05/07 01:12:52;;;;;;;1.67;1.27;;;18.00;55.00;;;;;;6193911;23;20221;-81
2021/05/07 01:15:24;;;;;;;1.45;1.35;;;18.00;54.90;;;;;;6168397;23;20205;-81
2021/05/07 01:18:05;;;;;;;2.13;1.70;;;18.00;55.00;;;;;;6220489;23;20162;-80
2021/05/07 01:20:40;;;;;;;4.15;1.60;;;18.00;54.80;;;;;;6193566;23;20181;-80
2021/05/07 01:23:08;;;;;;;2.92;1.60;;;18.00;55.10;;;;;;6219717;23;20185;-81
2021/05/07 01:25:42;;;;;;;1.48;1.38;;;18.00;55.10;;;;;;6193766;23;20166;-81
2021/05/07 01:28:28;;;;;;;3.72;1.77;;;18.00;54.90;;;;;;6219476;23;20160;-81
2021/05/07 01:30:54;;;;;;;1.55;1.40;;;18.00;55.20;;;;;;6188881;23;20592;-81
2021/05/07 01:33:21;;;;;;;1.70;1.48;;;18.00;55.00;;;;;;6219289;23;20217;-79
2021/05/07 01:35:49;;;;;;;2.47;1.90;;;18.00;54.90;;;;;;6220516;23;20544;-80
2021/05/07 01:38:16;;;;;;;1.90;1.70;;;18.00;55.00;;;;;;6193074;23;20216;-80
2021/05/07 01:40:47;;;;;;;2.53;1.52;;;18.00;55.00;;;;;;6192698;23;20241;-81
2021/05/07 01:43:26;;;;;;;2.30;1.48;;;18.00;55.00;;;;;;6219645;23;20137;-79
2021/05/07 01:45:52;;;;;;;1.80;1.60;;;18.00;55.10;;;;;;6192843;23;20173;-80
2021/05/07 01:48:19;;;;;;;2.17;1.80;;;18.00;55.00;;;;;;6192676;23;20130;-79
2021/05/07 01:50:47;;;;;;;2.38;1.70;;;18.00;54.90;;;;;;6193415;23;20474;-80
2021/05/07 01:53:14;;;;;;;1.70;1.60;;;18.00;55.00;;;;;;6193258;23;20138;-79
2021/05/07 01:56:00;;;;;;;2.05;1.60;;;18.00;55.00;;;;;;6193276;23;20170;-80
2021/05/07 01:58:25;;;;;;;2.63;1.50;;;18.00;55.30;;;;;;6188555;23;20162;-81
2021/05/07 02:01:00;;;;;;;1.70;1.50;;;18.00;55.00;;;;;;6193469;23;20137;-79
2021/05/07 02:03:26;;;;;;;1.33;1.23;;;18.00;54.90;;;;;;6192204;23;20176;-80
2021/05/07 02:05:53;;;;;;;1.63;1.52;;;18.00;55.10;;;;;;6192530;23;20150;-81
2021/05/07 02:08:19;;;;;;;3.15;1.70;;;18.00;55.10;;;;;;6219318;23;20134;-81
2021/05/07 02:10:45;;;;;;;1.90;1.58;;;18.00;55.00;;;;;;6219755;23;20218;-80
2021/05/07 02:13:12;;;;;;;2.20;1.52;;;18.00;55.00;;;;;;6193266;23;20225;-81
2021/05/07 02:15:38;;;;;;;2.35;1.58;;;17.90;54.90;;;;;;6219255;23;20138;-80
2021/05/07 02:18:07;;;;;;;2.95;1.60;;;18.00;55.00;;;;;;6192374;23;20169;-80
2021/05/07 02:20:34;;;;;;;2.28;1.60;;;18.00;55.00;;;;;;6193369;23;20218;-81
2021/05/07 02:23:00;;;;;;;1.80;1.52;;;18.00;55.10;;;;;;6192625;23;20189;-81
2021/05/07 02:25:28;;;;;;;2.00;1.75;;;17.90;54.90;;;;;;6192366;23;20152;-80
2021/05/07 02:27:55;;;;;;;1.67;1.38;;;17.90;55.10;;;;;;6218874;23;20145;-80
2021/05/07 02:30:26;;;;;;;2.33;1.60;;;17.90;54.90;;;;;;6191684;23;20204;-80
2021/05/07 02:32:53;;;;;;;2.05;1.50;;;17.90;54.90;;;;;;6167717;23;20514;-81
2021/05/07 02:35:20;;;;;;;1.50;1.35;;;17.90;54.80;;;;;;6219207;23;20135;-81
2021/05/07 02:37:46;;;;;;;1.95;1.42;;;17.90;55.00;;;;;;6191987;23;20193;-81
2021/05/07 02:40:14;;;;;;;1.65;1.48;;;17.90;55.10;;;;;;6219240;23;20625;-81
2021/05/07 02:42:41;;;;;;;1.50;1.35;;;17.90;54.90;;;;;;6218863;23;20209;-80
2021/05/07 02:45:10;;;;;;;2.15;1.63;;;17.90;54.90;;;;;;6219832;23;20130;-81
2021/05/07 02:47:37;;;;;;;1.77;1.40;;;17.90;54.90;;;;;;6192767;23;20134;-81
2021/05/07 02:50:05;;;;;;;1.98;1.65;;;17.90;54.90;;;;;;6218902;23;20141;-81
2021/05/07 02:52:33;;;;;;;1.85;1.42;;;17.90;54.90;;;;;;6192387;23;20196;-79
2021/05/07 02:55:01;;;;;;;1.67;1.50;;;17.90;55.10;;;;;;6192727;23;20244;-81
2021/05/07 02:57:27;;;;;;;2.55;1.70;;;17.90;54.90;;;;;;6169103;23;20154;-80
2021/05/07 02:59:55;;;;;;;1.50;1.40;;;17.90;54.90;;;;;;6192337;23;20145;-81
2021/05/07 03:02:21;;;;;;;1.70;1.45;;;17.90;54.90;;;;;;6219074;23;20562;-78
2021/05/07 03:04:47;;;;;;;2.17;1.80;;;17.90;55.00;;;;;;6191883;23;20130;-81
2021/05/07 03:07:14;;;;;;;1.92;1.73;;;17.90;55.00;;;;;;6193323;23;20134;-82
2021/05/07 03:09:49;;;;;;;1.90;1.70;;;17.90;54.90;;;;;;6219244;23;20138;-80
2021/05/07 03:12:14;;;;;;;1.77;1.67;;;17.90;55.00;;;;;;6192081;23;20195;-80
2021/05/07 03:14:41;;;;;;;1.75;1.42;;;17.90;54.90;;;;;;6218689;23;20161;-80
2021/05/07 03:17:08;;;;;;;1.95;1.70;;;17.90;55.10;;;;;;6218835;23;20139;-80
2021/05/07 03:19:35;;;;;;;1.90;1.60;;;17.90;54.90;;;;;;6219051;23;20241;-80
2021/05/07 03:22:00;;;;;;;2.38;1.60;;;17.90;55.00;;;;;;6215059;23;20157;-81
2021/05/07 03:24:27;;;;;;;1.70;1.60;;;17.90;55.50;;;;;;6163297;23;20131;-81
2021/05/07 03:26:54;;;;;;;1.42;1.27;;;17.90;55.00;;;;;;6162623;23;20150;-80
2021/05/07 03:29:20;;;;;;;2.47;1.70;;;17.90;55.00;;;;;;6188719;23;20146;-79
2021/05/07 03:31:47;;;;;;;2.92;1.60;;;17.90;54.80;;;;;;6188286;23;20143;-82
2021/05/07 03:34:22;;;;;;;1.60;1.50;;;17.90;54.90;;;;;;6162156;23;20490;-79
2021/05/07 03:36:51;;;;;;;1.88;1.60;;;17.90;55.00;;;;;;6163211;23;20154;-81
2021/05/07 03:39:18;;;;;;;1.90;1.70;;;17.80;54.90;;;;;;6165603;23;20162;-81
2021/05/07 03:41:52;;;;;;;2.70;1.48;;;17.90;55.00;;;;;;6165159;23;20138;-79
2021/05/07 03:44:18;;;;;;;2.40;1.70;;;17.90;54.90;;;;;;6192572;23;20138;-81
2021/05/07 03:46:44;;;;;;;2.38;1.52;;;17.90;54.80;;;;;;6192196;23;20131;-81
2021/05/07 03:49:11;;;;;;;1.98;1.67;;;17.90;55.70;;;;;;6166379;23;20533;-80
2021/05/07 03:51:37;;;;;;;2.20;1.35;;;17.90;54.80;;;;;;6165596;23;20147;-81
2021/05/07 03:54:05;;;;;;;1.50;1.40;;;17.90;55.00;;;;;;6192576;23;20147;-81
2021/05/07 03:56:31;;;;;;;1.95;1.45;;;17.80;55.00;;;;;;6192772;23;20213;-80
2021/05/07 03:58:57;;;;;;;3.25;1.80;;;17.80;54.90;;;;;;6166138;23;20216;-80
2021/05/07 04:01:24;;;;;;;1.98;1.60;;;17.80;54.80;;;;;;6192183;23;20138;-80
2021/05/07 04:03:52;;;;;;;2.00;1.60;;;17.80;54.90;;;;;;6192888;23;20232;-79
2021/05/07 04:06:20;;;;;;;2.03;1.60;;;17.80;54.90;;;;;;6167618;23;20210;-78
2021/05/07 04:09:04;;;;;;;1.75;1.40;;;17.80;54.70;;;;;;6166267;23;20516;-80
2021/05/07 04:12:10;;;;;;;1.70;1.60;;;17.90;54.40;;;;;;6170782;23;20145;-79
2021/05/07 04:14:25;;;;;;;1.92;1.63;;;17.90;54.40;;;;;;6169131;23;20526;-81
2021/05/07 04:16:52;;;;;;;1.50;1.40;;;17.90;54.50;;;;;;6162619;23;20147;-80
2021/05/07 04:19:18;;;;;;;1.70;1.50;;;17.90;54.10;;;;;;6189226;23;20166;-79
2021/05/07 04:21:43;;;;;;;1.80;1.60;;;17.90;54.20;;;;;;6164314;23;20200;-81
2021/05/07 04:24:11;;;;;;;3.13;1.50;;;17.90;54.10;;;;;;6220850;23;20138;-82
2021/05/07 04:26:38;;;;;;;1.98;1.50;;;18.00;53.40;;;;;;6220529;23;20141;-82
2021/05/07 04:29:05;;;;;;;2.28;1.80;;;18.00;53.90;;;;;;6221062;23;20134;-80
2021/05/07 04:31:31;;;;;;;2.35;1.45;;;18.00;53.30;;;;;;6193682;23;20146;-80
2021/05/07 04:33:58;;;;;;;1.88;1.75;;;18.00;53.20;;;;;;6221258;23;20135;-80
2021/05/07 04:36:24;;;;;;;2.33;1.90;;;18.00;53.20;;;;;;6220973;23;20134;-79
2021/05/07 04:38:58;;;;;;;2.13;1.67;;;18.10;53.30;;;;;;6221587;23;20198;-81
2021/05/07 04:41:25;;;;;;;2.42;1.58;;;18.10;53.10;;;;;;6221982;23;20466;-79
2021/05/07 04:43:53;;;;;;;1.60;1.50;;;18.10;52.80;;;;;;6223211;23;20130;-82
2021/05/07 04:46:19;;;;;;;2.03;1.60;;;18.10;53.00;;;;;;6222747;23;20135;-79
2021/05/07 04:48:53;;;;;;;3.47;1.65;;;18.10;52.80;;;;;;6222823;23;20158;-80
2021/05/07 04:51:20;;;;;;;2.75;1.70;;;18.10;52.70;;;;;;6195538;23;20134;-81
2021/05/07 04:53:47;;;;;;;1.70;1.60;;;18.10;52.80;;;;;;6223764;23;20141;-80
2021/05/07 04:56:13;;;;;;;2.10;1.50;;;18.10;53.30;;;;;;6224566;23;20134;-80
2021/05/07 04:58:44;;;;;;;2.55;1.48;;;18.10;53.30;;;;;;6198834;23;20506;-81
2021/05/07 05:01:11;;;;;;;2.28;1.52;;;18.10;52.80;;;;;;6198181;23;20165;-79
2021/05/07 05:03:37;;;;;;;1.55;1.45;;;18.10;53.00;;;;;;6172563;23;20582;-80
2021/05/07 05:06:06;;;;;;;1.52;1.40;;;18.10;53.40;;;;;;6225442;23;20170;-80
2021/05/07 05:08:33;;;;;;;2.25;1.65;;;18.10;53.40;;;;;;6199080;23;20157;-79
2021/05/07 05:11:01;;;;;;;2.58;1.70;;;18.10;52.80;;;;;;6199428;23;20153;-81
2021/05/07 05:13:28;;;;;;;1.92;1.30;;;18.10;52.70;;;;;;6173910;23;20146;-80
2021/05/07 05:15:56;;;;;;;2.78;2.03;;;18.10;53.20;;;;;;6174893;23;20146;-79
2021/05/07 05:18:29;;;;;;;2.45;1.80;;;18.10;53.20;;;;;;6199152;23;20193;-80
2021/05/07 05:20:56;;;;;;;2.00;1.60;;;18.10;53.20;;;;;;6199514;23;20583;-80
2021/05/07 05:23:23;;;;;;;1.83;1.58;;;18.10;53.20;;;;;;6149361;23;20193;-80
2021/05/07 05:25:49;;;;;;;1.95;1.60;;;18.10;52.80;;;;;;6200184;23;20192;-82
2021/05/07 05:28:16;;;;;;;2.22;1.70;;;18.10;53.10;;;;;;6198354;23;20144;-80
2021/05/07 05:30:42;;;;;;;2.47;1.60;;;18.10;52.70;;;;;;6199136;23;20173;-79
2021/05/07 05:33:09;;;;;;;2.60;1.90;;;18.10;53.00;;;;;;6199657;23;20181;-80
2021/05/07 05:35:36;;;;;;;2.30;1.85;;;18.10;52.90;;;;;;6174228;23;20146;-80
2021/05/07 05:38:03;;;;;;;2.75;1.63;;;18.10;52.60;;;;;;6198556;23;20162;-80
2021/05/07 05:40:37;;;;;;;2.15;1.60;;;18.10;52.70;;;;;;6225802;23;20181;-80
2021/05/07 05:43:07;;;;;;;1.60;1.50;;;18.10;52.80;;;;;;6224677;23;20193;-80
2021/05/07 05:45:33;;;;;;;1.50;1.40;;;18.10;52.40;;;;;;6225145;23;20134;-80
2021/05/07 05:48:03;;;;;;;2.00;1.73;;;18.10;52.40;;;;;;6197951;23;20198;-80
2021/05/07 05:50:29;;;;;;;1.77;1.63;;;18.10;52.80;;;;;;6225440;23;20138;-79
2021/05/07 05:52:57;;;;;;;2.03;1.63;;;18.10;52.90;;;;;;6224148;23;20134;-81
2021/05/07 05:55:24;;;;;;;1.88;1.60;;;18.10;52.50;;;;;;6198285;23;20558;-80
2021/05/07 05:57:56;;;;;;;1.65;1.52;;;18.10;52.70;;;;;;6224996;23;20158;-81
2021/05/07 06:00:23;;;;;;;1.95;1.52;;;18.10;53.00;;;;;;6198608;23;20189;-80
2021/05/07 06:02:49;;;;;;;2.25;1.88;;;18.10;52.80;;;;;;6224300;23;20130;-79
2021/05/07 06:05:16;;;;;;;2.95;1.60;;;18.10;52.60;;;;;;6198540;23;20135;-79
2021/05/07 06:07:51;;;;;;;1.67;1.48;;;18.10;52.70;;;;;;6199666;23;20141;-80
2021/05/07 06:10:26;;;;;;;3.30;1.80;;;18.10;51.90;;;;;;6199676;23;20130;-80
2021/05/07 06:12:53;;;;;;;1.52;1.42;;;18.10;52.40;;;;;;6197281;23;20129;-80
2021/05/07 06:15:27;;;;;;;2.17;1.73;;;18.10;52.30;;;;;;6223533;23;20137;-80
2021/05/07 06:17:53;;;;;;;2.03;1.60;;;18.20;51.50;;;;;;6196889;23;20203;-80
2021/05/07 06:20:28;;;;;;;1.80;1.65;;;18.20;52.50;;;;;;6224842;23;20562;-79
2021/05/07 06:22:54;;;;;;;1.63;1.52;;;18.20;52.80;;;;;;6223510;23;20192;-81
2021/05/07 06:25:29;;;;;;;1.92;1.70;;;18.10;52.50;;;;;;6196399;23;20221;-80
2021/05/07 06:27:56;;;;;;;1.95;1.63;;;18.10;52.10;;;;;;6196225;23;20130;-80
2021/05/07 06:30:23;;;;;;;1.77;1.67;;;18.20;52.60;;;;;;6169861;23;20200;-80
2021/05/07 06:32:58;;;;;;;1.90;1.70;;;18.20;52.60;;;;;;6221587;23;20134;-81
2021/05/07 06:35:24;;;;;;;1.98;1.75;;;18.20;52.60;;;;;;6194577;23;20134;-80
2021/05/07 06:37:50;;;;;;;2.10;1.80;;;18.20;52.40;;;;;;6169961;23;20194;-80
2021/05/07 06:40:18;;;;;;;1.45;1.35;;;18.10;52.50;;;;;;6196215;23;20130;-81
2021/05/07 06:42:53;;;;;;;1.90;1.52;;;18.10;52.50;;;;;;6193862;23;20194;-80
2021/05/07 06:45:19;;;;;;;2.05;1.83;;;18.20;52.20;;;;;;6195228;23;20180;-80
2021/05/07 06:47:46;;;;;;;1.80;1.70;;;18.20;52.40;;;;;;6196168;23;20271;-80
2021/05/07 06:50:15;;;;;;;2.40;1.88;;;18.20;52.20;;;;;;6169726;23;20145;-81
2021/05/07 06:52:42;;;;;;;2.50;1.90;;;18.20;52.40;;;;;;6196707;23;20149;-81
2021/05/07 06:55:12;;;;;;;2.33;1.40;;;18.20;52.40;;;;;;6194375;23;20131;-80
2021/05/07 06:57:39;;;;;;;2.50;1.70;;;18.20;52.10;;;;;;6221419;23;20169;-80
2021/05/07 07:00:08;;;;;;;2.38;1.95;;;18.20;51.60;;;;;;6169977;23;20142;-80
2021/05/07 07:02:35;;;;;;;2.08;1.75;;;18.20;52.00;;;;;;6194343;23;20565;-80
2021/05/07 07:05:12;;;;;;;2.53;1.75;;;18.20;51.70;;;;;;6221928;23;20231;-80
2021/05/07 07:07:43;;;;;;;2.00;1.80;;;18.20;52.20;;;;;;6194388;23;20142;-81
2021/05/07 07:10:11;;;;;;;2.38;1.80;;;18.20;51.80;;;;;;6170429;23;20252;-81
2021/05/07 07:12:46;;;;;;;1.67;1.55;;;18.20;52.20;;;;;;6195173;23;20222;-80
2021/05/07 07:15:22;;;;;;;2.15;1.73;;;18.20;52.40;;;;;;6194934;23;20133;-80
2021/05/07 07:17:48;;;;;;;1.80;1.60;;;18.20;52.30;;;;;;6170547;23;20631;-80
2021/05/07 07:20:15;;;;;;;1.95;1.80;;;18.20;52.50;;;;;;6171137;23;20138;-80
2021/05/07 07:22:41;;;;;;;2.55;1.80;;;18.20;52.20;;;;;;6188170;23;20229;-78
2021/05/07 07:25:10;;;;;;;2.92;1.88;;;18.20;52.20;;;;;;6174929;23;20146;-78
2021/05/07 07:27:37;;;;;;;2.00;1.67;;;18.20;52.10;;;;;;6173802;23;20150;-79
2021/05/07 07:30:04;;;;;;;2.00;1.80;;;18.20;51.60;;;;;;6172434;23;20154;-79
2021/05/07 07:32:34;;;;;;;3.33;1.80;;;18.20;52.00;;;;;;6174907;23;20185;-78
2021/05/07 07:35:09;;;;;;;1.90;1.70;;;18.20;52.00;;;;;;6174984;23;20131;-78
2021/05/07 07:37:44;;;;;;;1.92;1.73;;;18.20;52.10;;;;;;6171977;23;20150;-79
2021/05/07 07:40:13;;;;;;;2.00;1.70;;;18.20;51.80;;;;;;6149990;23;20493;-79
2021/05/07 07:42:45;;;;;;;1.75;1.63;;;18.20;51.90;;;;;;6174333;23;20138;-79
2021/05/07 07:45:13;;;;;;;2.50;1.80;;;18.20;51.50;;;;;;6200006;23;20165;-78
2021/05/07 07:47:46;;;;;;;1.95;1.70;;;18.20;51.80;;;;;;6126423;23;20169;-79
2021/05/07 07:50:17;;;;;;;2.03;1.80;;;18.20;51.80;;;;;;6161953;23;20150;-78
2021/05/07 07:53:01;;;;;;;1.88;1.75;;;18.20;51.50;;;;;;6174107;23;20205;-78
2021/05/07 07:55:29;;;;;;;1.65;1.40;;;18.20;51.70;;;;;;6150686;23;20459;-78
2021/05/07 07:57:58;;;;;;;2.10;1.77;;;18.30;51.10;;;;;;6149979;23;20170;-77
2021/05/07 08:00:33;;;;;;;1.98;1.50;;;18.30;51.90;;;;;;6173984;23;20141;-78
2021/05/07 08:03:09;;;;;;;;;;;;;;;;;;;;;
2021/05/07 08:05:39;;;;;;;2.13;1.80;;;18.20;51.50;;;;;;6176454;23;20177;-78
2021/05/07 08:08:10;;;;;;;2.83;1.60;;;18.30;51.50;;;;;;6175349;23;20173;-79
2021/05/07 08:10:42;;;;;;;2.38;1.98;;;18.30;51.90;;;;;;6150608;23;20128;-79
2021/05/07 08:13:10;;;;;;;2.03;1.83;;;18.20;51.40;;;;;;6146234;23;20130;-80
2021/05/07 08:15:49;;;;;;;;;;;;;;;;;;;;;
2021/05/07 08:18:54;;;;;;;2.95;1.77;;;18.30;51.70;;;;;;6165985;23;20245;-82
2021/05/07 08:21:38;;;;;;;2.85;1.73;;;18.20;51.60;;;;;;6140022;23;20233;-81
2021/05/07 08:24:12;;;;;;;3.08;1.85;;;18.20;51.90;;;;;;6192923;23;20194;-81
2021/05/07 08:26:41;;;;;;;1.92;1.60;;;18.20;51.50;;;;;;6167766;23;20150;-82
2021/05/07 08:29:59;;;;;;;1.73;1.60;;;18.30;51.20;;;;;;6165361;23;20153;-81
2021/05/07 08:36:12;;;;;;;2.05;1.80;;;18.30;51.50;;;;;;6221571;23;20200;-81
2021/05/07 08:38:41;;;;;;;2.08;1.80;;;18.30;51.30;;;;;;6164412;23;20173;-81
2021/05/07 08:41:56;;;;;;;2.00;1.80;;;18.30;51.50;;;;;;6165347;23;20127;-79
2021/05/07 08:44:38;;;;;;;2.05;1.75;;;18.30;51.50;;;;;;6098703;23;20580;-82
2021/05/07 08:47:20;;;;;;;;;;;;;;;;;;;;;
2021/05/07 08:50:27;;;;;;;1.90;1.70;;;18.30;51.30;;;;;;6100694;23;20220;-81
2021/05/07 08:53:20;;;;;;;2.08;1.65;;;18.30;50.90;;;;;;6014822;23;20218;-81
2021/05/07 08:55:53;;;;;;;2.53;1.85;;;18.30;51.60;;;;;;5991035;23;20164;-81
2021/05/07 08:58:38;;;;;;;;;;;;;;;;;;;;;
2021/05/07 09:01:19;;;;;;;3.65;1.95;;;18.20;51.70;;;;;;5992727;23;20237;-83
2021/05/07 09:04:35;;;;;;;;;;;;;;;;;;;;;
2021/05/07 09:21:13;;;;;;;1.98;1.77;;;18.30;51.10;;;;;;6041847;23;20194;-81
2021/05/07 09:34:56;;;;;;;2.03;1.80;;;18.30;51.40;;;;;;6041755;23;20157;-82
2021/05/07 09:40:48;;;;;;;1.70;1.60;;;18.30;50.80;;;;;;6044274;23;20695;-81
2021/05/07 09:46:36;;;;;;;2.30;2.10;;;18.20;51.60;;;;;;6040178;23;20222;-81
2021/05/07 09:56:26;;;;;;;2.00;1.80;;;18.20;51.80;;;;;;6069221;23;20146;-81
2021/05/07 10:02:34;;;;;;;1.75;1.63;;;18.20;51.20;;;;;;6000351;23;20212;-81
2021/05/07 10:05:18;;;;;;;2.10;1.90;;;18.20;51.40;;;;;;6005753;23;20242;-81
2021/05/07 10:07:48;;;;;;;2.05;1.80;;;18.20;51.50;;;;;;6011384;23;20198;-81
2021/05/07 10:10:30;;;;;;;3.00;1.95;;;18.20;51.50;;;;;;6010851;23;20186;-81
2021/05/07 10:13:01;;;;;;;2.20;2.00;;;18.20;51.50;;;;;;5964354;23;20154;-81
2021/05/07 10:15:40;;;;;;;4.05;2.00;;;18.20;51.50;;;;;;5987556;23;20143;-82
2021/05/07 10:18:26;;;;;;;2.17;1.90;;;18.20;51.70;;;;;;6010869;23;20216;-81
2021/05/07 10:21:19;;;;;;;1.85;1.75;;;18.20;51.70;;;;;;5986762;23;20570;-81
2021/05/07 10:23:51;;;;;;;2.08;1.83;;;18.20;51.70;;;;;;5999227;23;20212;-81
2021/05/07 10:26:46;;;;;;;2.22;1.80;;;18.20;51.50;;;;;;6015790;23;20150;-80
2021/05/07 10:29:35;;;;;;;2.08;1.88;;;18.30;51.00;;;;;;6038282;23;20162;-80
2021/05/07 10:32:11;;;;;;;2.25;1.80;;;18.30;51.20;;;;;;6012420;23;20482;-81
2021/05/07 10:38:30;;;;;;;2.65;2.13;;;18.20;51.40;;;;;;6060885;23;20296;-80
2021/05/07 10:41:29;;;;;;;2.10;1.90;;;18.30;51.10;;;;;;6191195;23;20150;-81
2021/05/07 10:43:58;;;;;;;2.30;2.10;;;18.30;51.10;;;;;;6193426;23;20232;-80
2021/05/07 10:49:47;;;;;;;4.13;1.90;;;18.30;51.10;;;;;;6219207;23;20154;-82
2021/05/07 10:52:18;;;;;;;3.17;1.90;;;18.30;51.20;;;;;;6191827;23;20145;-81
2021/05/07 10:55:14;;;;;;;2.33;1.70;;;18.30;51.00;;;;;;6166986;23;20150;-81
2021/05/07 10:58:40;;;;;;;2.28;1.98;;;18.40;51.40;;;;;;6072913;23;20152;-82
2021/05/07 11:01:56;;;;;;;2.90;1.98;;;18.30;51.20;;;;;;6097066;23;20148;-81
2021/05/07 11:05:03;;;;;;;2.22;1.95;;;18.30;51.40;;;;;;6098167;23;20156;-82
2021/05/07 11:07:30;;;;;;;2.08;1.90;;;18.30;51.00;;;;;;6097858;23;20141;-82
2021/05/07 11:10:14;;;;;;;2.08;1.88;;;18.30;51.40;;;;;;6026045;23;20235;-81
2021/05/07 11:13:01;;;;;;;1.90;1.70;;;18.30;51.20;;;;;;6052281;23;20566;-81
2021/05/07 11:15:27;;;;;;;2.75;2.00;;;18.30;50.80;;;;;;6026114;23;20619;-80
2021/05/07 11:18:10;;;;;;;2.20;2.00;;;18.30;50.60;;;;;;6073955;23;20144;-81
2021/05/07 11:20:52;;;;;;;2.83;2.13;;;18.40;50.70;;;;;;6073220;23;20224;-83
2021/05/07 11:23:18;;;;;;;2.25;1.80;;;18.30;51.30;;;;;;6049825;23;20192;-82
2021/05/07 11:25:47;;;;;;;2.53;2.30;;;18.30;50.80;;;;;;6098133;23;20683;-80
2021/05/07 11:28:48;;;;;;;4.05;2.20;;;18.30;51.10;;;;;;6081588;23;20507;-82
2021/05/07 11:34:30;;;;;;;2.58;2.00;;;18.30;51.20;;;;;;6087325;23;20163;-81
2021/05/07 11:37:46;;;;;;;2.60;2.10;;;18.30;50.90;;;;;;6125117;23;20151;-81
2021/05/07 11:40:17;;;;;;;2.70;2.42;;;18.40;51.10;;;;;;6125596;23;20592;-81
2021/05/07 11:42:47;;;;;;;3.00;2.03;;;18.30;51.30;;;;;;6127196;23;20136;-81
2021/05/07 11:45:44;;;;;;;2.40;1.90;;;18.30;50.70;;;;;;6079258;23;20156;-82
2021/05/07 11:48:34;;;;;;;2.08;1.88;;;18.30;51.30;;;;;;6101870;23;20156;-80
2021/05/07 11:51:29;;;;;;;;;;;;;;;;;;;;;
2021/05/07 11:58:01;;;;;;;3.13;1.90;;;18.30;51.40;;;;;;6105539;23;20219;-82
2021/05/07 12:24:33;;;;;;;2.35;2.10;;;18.40;50.80;;;;;;5995320;23;20183;-80
2021/05/07 12:33:56;;;;;;;2.75;2.17;;;18.40;50.90;;;;;;6042515;23;20137;-82
2021/05/07 12:40:35;;;;;;;2.17;1.98;;;18.30;51.00;;;;;;6054803;23;20536;-82
2021/05/07 12:43:03;;;;;;;2.10;1.90;;;18.30;51.10;;;;;;6071480;23;20201;-81
2021/05/07 12:45:29;;;;;;;2.80;2.05;;;18.30;51.10;;;;;;6071846;23;20165;-80
2021/05/07 12:48:00;;;;;;;2.25;1.98;;;18.30;51.20;;;;;;6107567;23;20490;-80
2021/05/07 12:50:28;;;;;;;2.00;1.80;;;18.30;51.00;;;;;;6172699;23;20142;-80
2021/05/07 12:56:39;;;;;;;2.80;1.90;;;18.30;51.00;;;;;;6222926;23;20138;-80
2021/05/07 12:59:56;;;;;;;2.67;2.17;;;18.30;51.10;;;;;;6149501;23;20185;-81
2021/05/07 13:03:25;;;;;;;;;;;;;;;;;;;;;
2021/05/07 13:23:03;;;;;;;2.03;1.80;;;18.30;51.00;;;;;;6225818;23;20204;-80
2021/05/07 13:25:30;;;;;;;2.20;2.00;;;18.30;51.20;;;;;;6168948;23;20183;-80
2021/05/07 13:27:59;;;;;;;2.55;2.35;;;18.30;50.70;;;;;;6118747;23;20190;-81
2021/05/07 13:30:26;;;;;;;2.38;2.05;;;18.30;50.50;;;;;;6142530;23;20522;-80
2021/05/07 13:32:57;;;;;;;2.67;1.80;;;18.30;50.70;;;;;;6166506;23;20158;-81
2021/05/07 13:36:02;;;;;;;2.20;1.90;;;18.30;51.00;;;;;;6145330;23;20226;-81
2021/05/07 13:42:32;;;;;;;2.47;2.03;;;18.40;50.30;;;;;;5994119;24;20166;-82
2021/05/07 13:52:13;;;;;;;4.03;2.03;;;18.40;50.20;;;;;;5999875;23;20166;-82
2021/05/07 14:05:00;;;;;;;;;;;;;;;;;;;;;
2021/05/07 14:14:38;;;;;;;2.25;1.90;;;18.40;50.40;;;;;;5971294;24;20173;-82
2021/05/07 14:27:20;;;;;;;3.20;1.88;;;18.40;50.20;;;;;;6224925;22;20317;-80
2021/05/07 15:01:29;;;;;;;2.38;2.17;;;18.50;50.10;;;;;;6199539;23;20158;-81
2021/05/07 15:14:45;;;;;;;2.33;2.10;;;18.40;50.20;;;;;;6077428;23;20163;-80
2021/05/07 16:33:50;;;;;;;3.35;2.28;;;18.60;49.40;;;;;;6251706;22;20188;-82
2021/05/07 16:46:29;;;;;;;7.18;2.00;;;18.60;50.00;;;;;;6231158;23;20215;-82
2021/05/07 17:19:57;;;;;;;4.72;2.40;;;18.70;50.00;;;;;;5996354;23;20372;-83
2021/05/07 17:27:31;;;;;;;;;;;;;;;;;;;;;
2021/05/07 17:34:18;;;;;;;11.38;3.00;;;18.70;50.30;;;;;;5914112;24;20144;-82
2021/05/07 17:40:24;;;;;;;10.30;2.90;;;18.70;49.80;;;;;;5859560;24;20274;-81
2021/05/07 17:43:56;;;;;;;7.82;2.60;;;18.70;50.20;;;;;;5837669;24;20163;-81
2021/05/07 18:20:27;;;;;;;4.05;2.58;;;18.60;50.40;;;;;;6222645;23;20177;-81
2021/05/07 18:26:23;;;;;;;7.22;2.47;;;18.60;51.00;;;;;;6224872;23;20133;-80
2021/05/07 18:29:03;;;;;;;;;;;;;;;;;;;;;
2021/05/07 18:49:47;;;;;;;5.25;2.58;;;18.50;51.10;;;;;;6188070;23;20150;-80
2021/05/07 18:52:31;;;;;;;8.27;2.55;;;18.50;51.00;;;;;;6117940;23;20185;-80
2021/05/07 18:58:53;;;;;;;5.50;2.40;;;18.50;51.00;;;;;;6096013;23;20281;-80
2021/05/07 19:01:55;;;;;;;7.75;2.80;;;18.50;51.50;;;;;;6074516;23;20140;-80
2021/05/07 19:08:32;;;;;;;4.28;2.53;;;18.50;51.60;;;;;;6039560;23;20218;-81
2021/05/07 19:11:41;;;;;;;5.85;2.90;;;18.50;51.80;;;;;;5905822;24;20184;-80
2021/05/07 19:20:34;;;;;;;4.88;2.60;;;18.50;51.20;;;;;;5909760;24;20168;-80
2021/05/07 19:23:27;;;;;;;4.57;2.78;;;18.50;52.60;;;;;;5904516;24;20157;-81
2021/05/07 19:26:08;;;;;;;12.10;3.20;;;18.50;52.30;;;;;;5889795;24;20157;-80
2021/05/07 19:28:49;;;;;;;6.00;2.70;;;18.50;52.40;;;;;;5882553;24;20160;-81
2021/05/07 19:31:28;;;;;;;6.32;2.92;;;18.50;52.80;;;;;;5885794;24;20157;-81
2021/05/07 19:38:06;;;;;;;5.75;3.10;;;18.40;54.10;;;;;;5982453;24;20695;-80
2021/05/07 19:44:31;;;;;;;7.13;3.00;;;18.40;54.40;;;;;;6019545;23;20222;-81
2021/05/07 23:05:42;;;;;;;3.95;2.95;;;18.20;56.20;;;;;;6216176;23;20235;-80
2021/05/07 23:21:38;;;;;;;4.47;2.92;;;18.10;57.10;;;;;;6194256;23;20134;-80
2021/05/07 23:24:04;;;;;;;5.80;3.20;;;18.10;56.90;;;;;;6169542;23;20147;-79
2021/05/07 23:26:31;;;;;;;4.55;2.97;;;18.10;57.10;;;;;;6144903;23;20145;-81
2021/05/07 23:28:57;;;;;;;4.43;3.03;;;18.10;56.80;;;;;;6144993;23;20193;-80
2021/05/07 23:31:24;;;;;;;4.60;2.90;;;18.20;56.80;;;;;;6169785;23;20142;-80
2021/05/07 23:33:52;;;;;;;5.03;3.00;;;18.20;57.40;;;;;;6144758;23;20147;-79
2021/05/07 23:36:20;;;;;;;6.32;2.97;;;18.20;56.70;;;;;;6169614;23;20479;-80
2021/05/07 23:38:55;;;;;;;3.92;2.85;;;18.10;56.90;;;;;;6169358;23;20176;-80
2021/05/07 23:41:23;;;;;;;3.70;2.72;;;18.20;57.10;;;;;;6138338;23;20154;-80
2021/05/07 23:43:49;;;;;;;6.80;2.97;;;18.10;57.40;;;;;;6169246;23;20142;-80
2021/05/07 23:46:18;;;;;;;4.63;2.90;;;18.10;56.70;;;;;;6168377;23;20131;-80